sensor_id;sensor_type;location;lat;lon;timestamp;P1;durP1;ratioP1;P2;durP2;ratioP2
22557;SDS011;11445;53.816;8.902;2022-12-24T00:01:39;18.65;;;4.32;;
22557;SDS011;11445;53.816;8.902;2022-12-24T00:04:06;16.27;;;4.32;;
22557;SDS011;11445;53.816;8.902;2022-12-24T00:06:33;10.18;;;4.30;;
22557;SDS011;11445;53.816;8.902;2022-12-24T00:09:01;10.25;;;3.95;;
22557;SDS011;11445;53.816;8.902;2022-12-24T00:11:28;17.38;;;4.53;;
22557;SDS011;11445;53.816;8.902;2022-12-24T00:13:55;15.25;;;4.78;;
22557;SDS011;11445;53.816;8.902;2022-12-24T00:16:22;16.83;;;4.53;;
22557;SDS011;11445;53.816;8.902;2022-12-24T00:18:51;17.25;;;5.30;;
22557;SDS011;11445;53.816;8.902;2022-12-24T00:21:18;21.08;;;4.68;;
22557;SDS011;11445;53.816;8.902;2022-12-24T00:23:45;9.18;;;4.10;;
22557;SDS011;11445;53.816;8.902;2022-12-24T00:26:12;11.88;;;4.57;;
22557;SDS011;11445;53.816;8.902;2022-12-24T00:28:39;12.57;;;4.82;;
22557;SDS011;11445;53.816;8.902;2022-12-24T00:31:07;19.02;;;5.10;;
22557;SDS011;11445;53.816;8.902;2022-12-24T00:33:35;18.65;;;5.13;;
22557;SDS011;11445;53.816;8.902;2022-12-24T00:36:04;11.15;;;4.70;;
22557;SDS011;11445;53.816;8.902;2022-12-24T00:38:32;16.73;;;4.93;;
22557;SDS011;11445;53.816;8.902;2022-12-24T00:40:59;12.48;;;5.72;;
22557;SDS011;11445;53.816;8.902;2022-12-24T00:43:26;15.95;;;5.88;;
22557;SDS011;11445;53.816;8.902;2022-12-24T00:45:53;19.58;;;5.53;;
22557;SDS011;11445;53.816;8.902;2022-12-24T00:48:21;24.15;;;7.80;;
22557;SDS011;11445;53.816;8.902;2022-12-24T00:50:48;12.25;;;6.25;;
22557;SDS011;11445;53.816;8.902;2022-12-24T00:53:17;14.93;;;5.90;;
22557;SDS011;11445;53.816;8.902;2022-12-24T00:55:44;16.00;;;5.95;;
22557;SDS011;11445;53.816;8.902;2022-12-24T00:58:11;15.45;;;5.60;;
22557;SDS011;11445;53.816;8.902;2022-12-24T01:00:38;18.00;;;6.35;;
22557;SDS011;11445;53.816;8.902;2022-12-24T01:03:05;18.25;;;5.57;;
22557;SDS011;11445;53.816;8.902;2022-12-24T01:05:32;14.35;;;5.45;;
22557;SDS011;11445;53.816;8.902;2022-12-24T01:07:58;16.17;;;6.20;;
22557;SDS011;11445;53.816;8.902;2022-12-24T01:10:26;15.68;;;6.30;;
22557;SDS011;11445;53.816;8.902;2022-12-24T01:12:53;15.57;;;6.75;;
22557;SDS011;11445;53.816;8.902;2022-12-24T01:15:20;13.15;;;6.30;;
22557;SDS011;11445;53.816;8.902;2022-12-24T01:17:47;17.58;;;7.20;;
22557;SDS011;11445;53.816;8.902;2022-12-24T01:20:15;14.50;;;7.00;;
22557;SDS011;11445;53.816;8.902;2022-12-24T01:22:42;12.35;;;6.18;;
22557;SDS011;11445;53.816;8.902;2022-12-24T01:25:09;22.23;;;7.20;;
22557;SDS011;11445;53.816;8.902;2022-12-24T01:27:40;17.48;;;6.57;;
22557;SDS011;11445;53.816;8.902;2022-12-24T01:30:07;17.38;;;6.80;;
22557;SDS011;11445;53.816;8.902;2022-12-24T01:32:38;17.70;;;6.82;;
22557;SDS011;11445;53.816;8.902;2022-12-24T01:35:05;16.50;;;7.47;;
22557;SDS011;11445;53.816;8.902;2022-12-24T01:37:34;19.08;;;7.47;;
22557;SDS011;11445;53.816;8.902;2022-12-24T01:40:01;24.10;;;7.78;;
22557;SDS011;11445;53.816;8.902;2022-12-24T01:42:47;18.95;;;7.10;;
22557;SDS011;11445;53.816;8.902;2022-12-24T01:45:40;23.77;;;7.30;;
22557;SDS011;11445;53.816;8.902;2022-12-24T01:48:13;22.60;;;7.55;;
22557;SDS011;11445;53.816;8.902;2022-12-24T01:51:03;22.77;;;7.70;;
22557;SDS011;11445;53.816;8.902;2022-12-24T01:53:33;17.95;;;8.00;;
22557;SDS011;11445;53.816;8.902;2022-12-24T01:56:03;19.25;;;7.70;;
22557;SDS011;11445;53.816;8.902;2022-12-24T01:58:32;19.50;;;8.05;;
22557;SDS011;11445;53.816;8.902;2022-12-24T02:01:01;20.23;;;7.63;;
22557;SDS011;11445;53.816;8.902;2022-12-24T02:03:28;24.13;;;8.43;;
22557;SDS011;11445;53.816;8.902;2022-12-24T02:05:56;22.70;;;8.23;;
22557;SDS011;11445;53.816;8.902;2022-12-24T02:08:25;24.92;;;8.85;;
22557;SDS011;11445;53.816;8.902;2022-12-24T02:11:07;16.70;;;8.35;;
22557;SDS011;11445;53.816;8.902;2022-12-24T02:13:39;20.70;;;8.52;;
22557;SDS011;11445;53.816;8.902;2022-12-24T02:16:11;22.17;;;9.15;;
22557;SDS011;11445;53.816;8.902;2022-12-24T02:18:47;23.15;;;9.25;;
22557;SDS011;11445;53.816;8.902;2022-12-24T02:21:28;26.95;;;9.18;;
22557;SDS011;11445;53.816;8.902;2022-12-24T02:27:20;23.10;;;8.40;;
22557;SDS011;11445;53.816;8.902;2022-12-24T02:30:03;20.38;;;8.68;;
22557;SDS011;11445;53.816;8.902;2022-12-24T02:35:43;25.58;;;9.00;;
22557;SDS011;11445;53.816;8.902;2022-12-24T02:38:17;23.48;;;9.07;;
22557;SDS011;11445;53.816;8.902;2022-12-24T02:40:49;22.73;;;8.27;;
22557;SDS011;11445;53.816;8.902;2022-12-24T02:43:21;27.15;;;9.23;;
22557;SDS011;11445;53.816;8.902;2022-12-24T02:45:54;20.67;;;8.73;;
22557;SDS011;11445;53.816;8.902;2022-12-24T02:48:24;16.55;;;6.75;;
22557;SDS011;11445;53.816;8.902;2022-12-24T02:50:54;24.33;;;9.40;;
22557;SDS011;11445;53.816;8.902;2022-12-24T02:53:27;27.35;;;10.25;;
22557;SDS011;11445;53.816;8.902;2022-12-24T02:58:47;29.05;;;10.07;;
22557;SDS011;11445;53.816;8.902;2022-12-24T03:01:27;25.35;;;10.00;;
22557;SDS011;11445;53.816;8.902;2022-12-24T03:04:07;25.65;;;10.00;;
22557;SDS011;11445;53.816;8.902;2022-12-24T03:06:45;29.77;;;11.32;;
22557;SDS011;11445;53.816;8.902;2022-12-24T03:09:19;25.98;;;10.40;;
22557;SDS011;11445;53.816;8.902;2022-12-24T03:11:53;26.65;;;11.30;;
22557;SDS011;11445;53.816;8.902;2022-12-24T03:14:24;31.75;;;10.60;;
22557;SDS011;11445;53.816;8.902;2022-12-24T03:16:53;26.60;;;10.32;;
22557;SDS011;11445;53.816;8.902;2022-12-24T03:19:22;30.73;;;10.63;;
22557;SDS011;11445;53.816;8.902;2022-12-24T03:21:50;24.90;;;10.65;;
22557;SDS011;11445;53.816;8.902;2022-12-24T03:24:19;30.00;;;11.25;;
22557;SDS011;11445;53.816;8.902;2022-12-24T03:26:46;21.15;;;10.52;;
22557;SDS011;11445;53.816;8.902;2022-12-24T03:29:14;27.65;;;11.20;;
22557;SDS011;11445;53.816;8.902;2022-12-24T03:31:43;28.50;;;10.93;;
22557;SDS011;11445;53.816;8.902;2022-12-24T03:34:13;26.90;;;11.32;;
22557;SDS011;11445;53.816;8.902;2022-12-24T03:36:40;29.15;;;11.07;;
22557;SDS011;11445;53.816;8.902;2022-12-24T03:39:08;28.08;;;11.30;;
22557;SDS011;11445;53.816;8.902;2022-12-24T03:41:35;31.73;;;10.68;;
22557;SDS011;11445;53.816;8.902;2022-12-24T03:44:03;24.45;;;10.73;;
22557;SDS011;11445;53.816;8.902;2022-12-24T03:46:30;22.13;;;10.50;;
22557;SDS011;11445;53.816;8.902;2022-12-24T03:48:57;23.90;;;10.38;;
22557;SDS011;11445;53.816;8.902;2022-12-24T03:51:26;31.13;;;10.60;;
22557;SDS011;11445;53.816;8.902;2022-12-24T03:53:53;30.77;;;11.55;;
22557;SDS011;11445;53.816;8.902;2022-12-24T03:56:21;27.90;;;11.52;;
22557;SDS011;11445;53.816;8.902;2022-12-24T03:58:48;34.30;;;10.85;;
22557;SDS011;11445;53.816;8.902;2022-12-24T04:01:16;31.25;;;11.70;;
22557;SDS011;11445;53.816;8.902;2022-12-24T04:03:43;28.55;;;11.57;;
22557;SDS011;11445;53.816;8.902;2022-12-24T04:06:11;30.13;;;11.98;;
22557;SDS011;11445;53.816;8.902;2022-12-24T04:08:40;26.55;;;11.35;;
22557;SDS011;11445;53.816;8.902;2022-12-24T04:11:08;27.00;;;11.20;;
22557;SDS011;11445;53.816;8.902;2022-12-24T04:13:36;29.65;;;11.65;;
22557;SDS011;11445;53.816;8.902;2022-12-24T04:16:04;26.38;;;11.02;;
22557;SDS011;11445;53.816;8.902;2022-12-24T04:18:33;28.85;;;11.18;;
22557;SDS011;11445;53.816;8.902;2022-12-24T04:21:00;29.63;;;10.70;;
22557;SDS011;11445;53.816;8.902;2022-12-24T04:23:29;36.25;;;11.13;;
22557;SDS011;11445;53.816;8.902;2022-12-24T04:25:59;30.73;;;11.10;;
22557;SDS011;11445;53.816;8.902;2022-12-24T04:28:27;27.55;;;11.20;;
22557;SDS011;11445;53.816;8.902;2022-12-24T04:30:56;32.58;;;11.13;;
22557;SDS011;11445;53.816;8.902;2022-12-24T04:33:24;24.13;;;11.48;;
22557;SDS011;11445;53.816;8.902;2022-12-24T04:35:52;24.70;;;10.73;;
22557;SDS011;11445;53.816;8.902;2022-12-24T04:38:19;32.63;;;12.25;;
22557;SDS011;11445;53.816;8.902;2022-12-24T04:40:46;26.25;;;10.55;;
22557;SDS011;11445;53.816;8.902;2022-12-24T04:43:14;32.55;;;12.13;;
22557;SDS011;11445;53.816;8.902;2022-12-24T04:45:42;34.63;;;12.40;;
22557;SDS011;11445;53.816;8.902;2022-12-24T04:48:09;36.60;;;12.85;;
22557;SDS011;11445;53.816;8.902;2022-12-24T04:50:35;35.55;;;13.05;;
22557;SDS011;11445;53.816;8.902;2022-12-24T04:53:02;28.67;;;12.50;;
22557;SDS011;11445;53.816;8.902;2022-12-24T04:55:29;27.73;;;11.95;;
22557;SDS011;11445;53.816;8.902;2022-12-24T04:57:56;32.53;;;12.63;;
22557;SDS011;11445;53.816;8.902;2022-12-24T05:00:25;30.92;;;12.65;;
22557;SDS011;11445;53.816;8.902;2022-12-24T05:02:52;37.50;;;12.27;;
22557;SDS011;11445;53.816;8.902;2022-12-24T05:05:19;31.65;;;11.75;;
22557;SDS011;11445;53.816;8.902;2022-12-24T05:07:46;32.00;;;13.38;;
22557;SDS011;11445;53.816;8.902;2022-12-24T05:10:13;33.92;;;12.60;;
22557;SDS011;11445;53.816;8.902;2022-12-24T05:12:40;31.40;;;11.73;;
22557;SDS011;11445;53.816;8.902;2022-12-24T05:15:07;27.88;;;13.15;;
22557;SDS011;11445;53.816;8.902;2022-12-24T05:17:35;38.72;;;13.48;;
22557;SDS011;11445;53.816;8.902;2022-12-24T05:20:03;32.53;;;13.80;;
22557;SDS011;11445;53.816;8.902;2022-12-24T05:22:30;25.63;;;12.55;;
22557;SDS011;11445;53.816;8.902;2022-12-24T05:25:15;31.92;;;13.48;;
22557;SDS011;11445;53.816;8.902;2022-12-24T05:27:59;32.90;;;12.65;;
22557;SDS011;11445;53.816;8.902;2022-12-24T05:30:26;31.70;;;12.27;;
22557;SDS011;11445;53.816;8.902;2022-12-24T05:32:55;35.88;;;13.23;;
22557;SDS011;11445;53.816;8.902;2022-12-24T05:35:22;30.77;;;12.52;;
22557;SDS011;11445;53.816;8.902;2022-12-24T05:37:49;26.65;;;12.40;;
22557;SDS011;11445;53.816;8.902;2022-12-24T05:40:16;39.70;;;12.60;;
22557;SDS011;11445;53.816;8.902;2022-12-24T05:42:43;29.20;;;12.57;;
22557;SDS011;11445;53.816;8.902;2022-12-24T05:45:10;32.78;;;13.85;;
22557;SDS011;11445;53.816;8.902;2022-12-24T05:47:37;29.40;;;11.95;;
22557;SDS011;11445;53.816;8.902;2022-12-24T05:50:06;27.60;;;11.60;;
22557;SDS011;11445;53.816;8.902;2022-12-24T05:52:34;38.42;;;12.98;;
22557;SDS011;11445;53.816;8.902;2022-12-24T05:55:01;28.25;;;13.05;;
22557;SDS011;11445;53.816;8.902;2022-12-24T05:57:28;27.95;;;13.15;;
22557;SDS011;11445;53.816;8.902;2022-12-24T05:59:55;28.80;;;12.88;;
22557;SDS011;11445;53.816;8.902;2022-12-24T06:02:22;27.08;;;12.52;;
22557;SDS011;11445;53.816;8.902;2022-12-24T06:04:49;36.95;;;13.15;;
22557;SDS011;11445;53.816;8.902;2022-12-24T06:07:18;33.35;;;12.90;;
22557;SDS011;11445;53.816;8.902;2022-12-24T06:09:45;39.30;;;13.13;;
22557;SDS011;11445;53.816;8.902;2022-12-24T06:12:12;27.48;;;12.35;;
22557;SDS011;11445;53.816;8.902;2022-12-24T06:14:38;27.55;;;12.80;;
22557;SDS011;11445;53.816;8.902;2022-12-24T06:17:05;32.05;;;12.68;;
22557;SDS011;11445;53.816;8.902;2022-12-24T06:19:32;29.88;;;13.45;;
22557;SDS011;11445;53.816;8.902;2022-12-24T06:21:59;28.95;;;13.32;;
22557;SDS011;11445;53.816;8.902;2022-12-24T06:24:28;31.73;;;12.52;;
22557;SDS011;11445;53.816;8.902;2022-12-24T06:26:55;25.75;;;12.23;;
22557;SDS011;11445;53.816;8.902;2022-12-24T06:29:22;27.92;;;11.93;;
22557;SDS011;11445;53.816;8.902;2022-12-24T06:31:49;29.25;;;12.35;;
22557;SDS011;11445;53.816;8.902;2022-12-24T06:34:16;26.75;;;12.07;;
22557;SDS011;11445;53.816;8.902;2022-12-24T06:36:43;27.15;;;12.38;;
22557;SDS011;11445;53.816;8.902;2022-12-24T06:39:10;24.88;;;12.57;;
22557;SDS011;11445;53.816;8.902;2022-12-24T06:41:39;27.23;;;12.63;;
22557;SDS011;11445;53.816;8.902;2022-12-24T06:44:06;26.73;;;12.52;;
22557;SDS011;11445;53.816;8.902;2022-12-24T06:46:34;29.02;;;13.18;;
22557;SDS011;11445;53.816;8.902;2022-12-24T06:49:01;26.73;;;12.00;;
22557;SDS011;11445;53.816;8.902;2022-12-24T06:51:28;22.88;;;11.50;;
22557;SDS011;11445;53.816;8.902;2022-12-24T06:53:55;25.33;;;11.68;;
22557;SDS011;11445;53.816;8.902;2022-12-24T06:56:22;25.30;;;12.57;;
22557;SDS011;11445;53.816;8.902;2022-12-24T06:58:50;31.15;;;11.93;;
22557;SDS011;11445;53.816;8.902;2022-12-24T07:01:18;27.70;;;11.77;;
22557;SDS011;11445;53.816;8.902;2022-12-24T07:03:46;25.63;;;12.15;;
22557;SDS011;11445;53.816;8.902;2022-12-24T07:06:14;26.13;;;11.55;;
22557;SDS011;11445;53.816;8.902;2022-12-24T07:08:44;24.02;;;11.90;;
22557;SDS011;11445;53.816;8.902;2022-12-24T07:11:12;23.30;;;11.48;;
22557;SDS011;11445;53.816;8.902;2022-12-24T07:13:39;22.65;;;11.73;;
22557;SDS011;11445;53.816;8.902;2022-12-24T07:16:07;26.70;;;11.60;;
22557;SDS011;11445;53.816;8.902;2022-12-24T07:18:35;28.83;;;11.88;;
22557;SDS011;11445;53.816;8.902;2022-12-24T07:21:02;23.02;;;11.90;;
22557;SDS011;11445;53.816;8.902;2022-12-24T07:23:30;28.17;;;11.57;;
22557;SDS011;11445;53.816;8.902;2022-12-24T07:25:58;27.42;;;11.35;;
22557;SDS011;11445;53.816;8.902;2022-12-24T07:28:26;30.90;;;11.77;;
22557;SDS011;11445;53.816;8.902;2022-12-24T07:30:53;31.10;;;12.00;;
22557;SDS011;11445;53.816;8.902;2022-12-24T07:33:22;24.20;;;11.57;;
22557;SDS011;11445;53.816;8.902;2022-12-24T07:35:56;28.48;;;11.15;;
22557;SDS011;11445;53.816;8.902;2022-12-24T07:38:23;26.35;;;11.70;;
22557;SDS011;11445;53.816;8.902;2022-12-24T07:40:50;25.60;;;11.93;;
22557;SDS011;11445;53.816;8.902;2022-12-24T07:43:17;22.77;;;10.88;;
22557;SDS011;11445;53.816;8.902;2022-12-24T07:45:44;24.02;;;10.88;;
22557;SDS011;11445;53.816;8.902;2022-12-24T07:48:11;20.77;;;10.55;;
22557;SDS011;11445;53.816;8.902;2022-12-24T07:50:40;24.50;;;10.10;;
22557;SDS011;11445;53.816;8.902;2022-12-24T07:53:07;23.77;;;11.00;;
22557;SDS011;11445;53.816;8.902;2022-12-24T07:55:34;25.27;;;11.27;;
22557;SDS011;11445;53.816;8.902;2022-12-24T07:58:01;28.52;;;10.82;;
22557;SDS011;11445;53.816;8.902;2022-12-24T08:00:28;21.67;;;10.85;;
22557;SDS011;11445;53.816;8.902;2022-12-24T08:02:55;22.58;;;10.40;;
22557;SDS011;11445;53.816;8.902;2022-12-24T08:05:24;22.70;;;11.20;;
22557;SDS011;11445;53.816;8.902;2022-12-24T08:07:53;23.77;;;11.07;;
22557;SDS011;11445;53.816;8.902;2022-12-24T08:10:20;23.45;;;10.55;;
22557;SDS011;11445;53.816;8.902;2022-12-24T08:12:47;18.38;;;9.63;;
22557;SDS011;11445;53.816;8.902;2022-12-24T08:15:14;20.73;;;10.63;;
22557;SDS011;11445;53.816;8.902;2022-12-24T08:17:41;24.92;;;11.02;;
22557;SDS011;11445;53.816;8.902;2022-12-24T08:20:09;23.65;;;10.55;;
22557;SDS011;11445;53.816;8.902;2022-12-24T08:22:36;23.90;;;10.55;;
22557;SDS011;11445;53.816;8.902;2022-12-24T08:25:06;25.02;;;11.23;;
22557;SDS011;11445;53.816;8.902;2022-12-24T08:27:33;23.67;;;10.57;;
22557;SDS011;11445;53.816;8.902;2022-12-24T08:30:00;22.27;;;10.50;;
22557;SDS011;11445;53.816;8.902;2022-12-24T08:32:27;26.27;;;11.20;;
22557;SDS011;11445;53.816;8.902;2022-12-24T08:34:54;19.25;;;10.52;;
22557;SDS011;11445;53.816;8.902;2022-12-24T08:37:21;22.58;;;11.45;;
22557;SDS011;11445;53.816;8.902;2022-12-24T08:39:48;23.30;;;10.68;;
22557;SDS011;11445;53.816;8.902;2022-12-24T08:42:17;28.30;;;10.50;;
22557;SDS011;11445;53.816;8.902;2022-12-24T08:44:44;28.58;;;10.90;;
22557;SDS011;11445;53.816;8.902;2022-12-24T08:47:11;23.65;;;10.65;;
22557;SDS011;11445;53.816;8.902;2022-12-24T08:49:38;25.58;;;10.80;;
22557;SDS011;11445;53.816;8.902;2022-12-24T08:52:05;23.00;;;11.13;;
22557;SDS011;11445;53.816;8.902;2022-12-24T08:54:32;26.45;;;11.52;;
22557;SDS011;11445;53.816;8.902;2022-12-24T08:56:59;23.15;;;11.15;;
22557;SDS011;11445;53.816;8.902;2022-12-24T08:59:27;24.58;;;10.98;;
22557;SDS011;11445;53.816;8.902;2022-12-24T09:01:54;19.83;;;10.25;;
22557;SDS011;11445;53.816;8.902;2022-12-24T09:04:21;26.00;;;11.70;;
22557;SDS011;11445;53.816;8.902;2022-12-24T09:06:48;23.23;;;11.60;;
22557;SDS011;11445;53.816;8.902;2022-12-24T09:09:15;24.85;;;11.25;;
22557;SDS011;11445;53.816;8.902;2022-12-24T09:11:42;25.63;;;10.77;;
22557;SDS011;11445;53.816;8.902;2022-12-24T09:14:10;33.88;;;11.77;;
22557;SDS011;11445;53.816;8.902;2022-12-24T09:16:38;27.10;;;11.35;;
22557;SDS011;11445;53.816;8.902;2022-12-24T09:19:05;26.58;;;11.90;;
22557;SDS011;11445;53.816;8.902;2022-12-24T09:21:32;25.38;;;11.27;;
22557;SDS011;11445;53.816;8.902;2022-12-24T09:23:59;24.58;;;10.77;;
22557;SDS011;11445;53.816;8.902;2022-12-24T09:26:28;25.88;;;10.70;;
22557;SDS011;11445;53.816;8.902;2022-12-24T09:28:56;26.13;;;11.32;;
22557;SDS011;11445;53.816;8.902;2022-12-24T09:31:25;29.92;;;12.25;;
22557;SDS011;11445;53.816;8.902;2022-12-24T09:33:53;27.13;;;11.75;;
22557;SDS011;11445;53.816;8.902;2022-12-24T09:36:21;24.60;;;10.98;;
22557;SDS011;11445;53.816;8.902;2022-12-24T09:38:48;26.10;;;11.00;;
22557;SDS011;11445;53.816;8.902;2022-12-24T09:41:20;29.38;;;11.38;;
22557;SDS011;11445;53.816;8.902;2022-12-24T09:43:57;27.85;;;11.48;;
22557;SDS011;11445;53.816;8.902;2022-12-24T09:46:29;24.00;;;11.43;;
22557;SDS011;11445;53.816;8.902;2022-12-24T09:49:03;24.60;;;11.43;;
22557;SDS011;11445;53.816;8.902;2022-12-24T09:51:37;25.58;;;11.50;;
22557;SDS011;11445;53.816;8.902;2022-12-24T09:54:09;24.80;;;11.02;;
22557;SDS011;11445;53.816;8.902;2022-12-24T09:56:42;27.55;;;11.45;;
22557;SDS011;11445;53.816;8.902;2022-12-24T09:59:10;27.23;;;11.60;;
22557;SDS011;11445;53.816;8.902;2022-12-24T10:01:40;28.90;;;10.98;;
22557;SDS011;11445;53.816;8.902;2022-12-24T10:04:10;26.33;;;10.85;;
22557;SDS011;11445;53.816;8.902;2022-12-24T10:06:41;24.75;;;10.88;;
22557;SDS011;11445;53.816;8.902;2022-12-24T10:09:15;34.75;;;12.25;;
22557;SDS011;11445;53.816;8.902;2022-12-24T10:11:49;28.08;;;12.77;;
22557;SDS011;11445;53.816;8.902;2022-12-24T10:14:25;33.35;;;13.25;;
22557;SDS011;11445;53.816;8.902;2022-12-24T10:17:03;27.00;;;12.48;;
22557;SDS011;11445;53.816;8.902;2022-12-24T10:22:18;29.58;;;12.93;;
22557;SDS011;11445;53.816;8.902;2022-12-24T10:24:52;34.90;;;12.75;;
22557;SDS011;11445;53.816;8.902;2022-12-24T10:27:24;35.65;;;12.98;;
22557;SDS011;11445;53.816;8.902;2022-12-24T10:30:11;34.00;;;13.15;;
22557;SDS011;11445;53.816;8.902;2022-12-24T10:32:39;32.85;;;13.50;;
22557;SDS011;11445;53.816;8.902;2022-12-24T10:35:18;25.88;;;12.80;;
22557;SDS011;11445;53.816;8.902;2022-12-24T10:37:49;32.88;;;13.52;;
22557;SDS011;11445;53.816;8.902;2022-12-24T10:40:20;32.55;;;15.60;;
22557;SDS011;11445;53.816;8.902;2022-12-24T10:42:52;45.28;;;15.73;;
22557;SDS011;11445;53.816;8.902;2022-12-24T10:45:20;34.63;;;14.57;;
22557;SDS011;11445;53.816;8.902;2022-12-24T10:47:50;33.45;;;13.77;;
22557;SDS011;11445;53.816;8.902;2022-12-24T10:50:23;36.50;;;15.00;;
22557;SDS011;11445;53.816;8.902;2022-12-24T10:52:58;32.58;;;14.27;;
22557;SDS011;11445;53.816;8.902;2022-12-24T10:55:31;30.33;;;13.45;;
22557;SDS011;11445;53.816;8.902;2022-12-24T10:57:59;38.53;;;13.18;;
22557;SDS011;11445;53.816;8.902;2022-12-24T11:00:27;37.80;;;14.10;;
22557;SDS011;11445;53.816;8.902;2022-12-24T11:03:05;33.15;;;14.18;;
22557;SDS011;11445;53.816;8.902;2022-12-24T11:05:35;30.05;;;13.73;;
22557;SDS011;11445;53.816;8.902;2022-12-24T11:08:04;28.75;;;12.40;;
22557;SDS011;11445;53.816;8.902;2022-12-24T11:10:39;24.70;;;12.73;;
22557;SDS011;11445;53.816;8.902;2022-12-24T11:13:16;27.90;;;13.27;;
22557;SDS011;11445;53.816;8.902;2022-12-24T11:15:48;29.17;;;12.95;;
22557;SDS011;11445;53.816;8.902;2022-12-24T11:18:24;31.42;;;13.85;;
22557;SDS011;11445;53.816;8.902;2022-12-24T11:20:53;28.52;;;13.88;;
22557;SDS011;11445;53.816;8.902;2022-12-24T11:23:23;35.53;;;14.00;;
22557;SDS011;11445;53.816;8.902;2022-12-24T11:25:50;29.90;;;14.75;;
22557;SDS011;11445;53.816;8.902;2022-12-24T11:28:20;30.08;;;13.73;;
22557;SDS011;11445;53.816;8.902;2022-12-24T11:30:56;31.77;;;13.75;;
22557;SDS011;11445;53.816;8.902;2022-12-24T11:33:26;32.33;;;13.73;;
22557;SDS011;11445;53.816;8.902;2022-12-24T11:35:57;34.30;;;14.85;;
22557;SDS011;11445;53.816;8.902;2022-12-24T11:38:27;33.00;;;14.02;;
22557;SDS011;11445;53.816;8.902;2022-12-24T11:40:59;34.90;;;15.07;;
22557;SDS011;11445;53.816;8.902;2022-12-24T11:43:37;36.08;;;14.25;;
22557;SDS011;11445;53.816;8.902;2022-12-24T11:46:11;33.95;;;14.60;;
22557;SDS011;11445;53.816;8.902;2022-12-24T11:48:40;35.88;;;15.52;;
22557;SDS011;11445;53.816;8.902;2022-12-24T11:51:17;39.95;;;15.98;;
22557;SDS011;11445;53.816;8.902;2022-12-24T11:53:47;34.83;;;16.05;;
22557;SDS011;11445;53.816;8.902;2022-12-24T11:56:20;34.30;;;14.90;;
22557;SDS011;11445;53.816;8.902;2022-12-24T11:58:55;32.47;;;15.43;;
22557;SDS011;11445;53.816;8.902;2022-12-24T12:01:28;41.00;;;15.40;;
22557;SDS011;11445;53.816;8.902;2022-12-24T12:03:59;34.30;;;16.52;;
22557;SDS011;11445;53.816;8.902;2022-12-24T12:06:32;40.30;;;14.63;;
22557;SDS011;11445;53.816;8.902;2022-12-24T12:09:04;48.63;;;15.50;;
22557;SDS011;11445;53.816;8.902;2022-12-24T12:11:35;35.72;;;14.75;;
22557;SDS011;11445;53.816;8.902;2022-12-24T12:14:05;37.78;;;14.05;;
22557;SDS011;11445;53.816;8.902;2022-12-24T12:16:43;47.38;;;15.68;;
22557;SDS011;11445;53.816;8.902;2022-12-24T12:19:29;40.15;;;14.68;;
22557;SDS011;11445;53.816;8.902;2022-12-24T12:22:01;48.28;;;16.05;;
22557;SDS011;11445;53.816;8.902;2022-12-24T12:24:32;34.50;;;13.73;;
22557;SDS011;11445;53.816;8.902;2022-12-24T12:27:04;35.33;;;13.65;;
22557;SDS011;11445;53.816;8.902;2022-12-24T12:29:39;38.25;;;14.30;;
22557;SDS011;11445;53.816;8.902;2022-12-24T12:32:11;37.30;;;15.23;;
22557;SDS011;11445;53.816;8.902;2022-12-24T12:34:48;45.80;;;14.68;;
22557;SDS011;11445;53.816;8.902;2022-12-24T12:37:24;33.42;;;12.15;;
22557;SDS011;11445;53.816;8.902;2022-12-24T12:39:56;35.55;;;13.48;;
22557;SDS011;11445;53.816;8.902;2022-12-24T12:42:25;33.97;;;13.32;;
22557;SDS011;11445;53.816;8.902;2022-12-24T12:47:35;43.88;;;14.60;;
22557;SDS011;11445;53.816;8.902;2022-12-24T12:50:19;33.05;;;13.13;;
22557;SDS011;11445;53.816;8.902;2022-12-24T12:52:58;32.13;;;13.35;;
22557;SDS011;11445;53.816;8.902;2022-12-24T12:55:44;36.75;;;12.80;;
22557;SDS011;11445;53.816;8.902;2022-12-24T12:58:20;31.70;;;13.52;;
22557;SDS011;11445;53.816;8.902;2022-12-24T13:00:53;56.15;;;16.05;;
22557;SDS011;11445;53.816;8.902;2022-12-24T13:03:43;43.28;;;13.60;;
22557;SDS011;11445;53.816;8.902;2022-12-24T13:06:43;35.80;;;13.50;;
22557;SDS011;11445;53.816;8.902;2022-12-24T13:09:36;39.35;;;12.93;;
22557;SDS011;11445;53.816;8.902;2022-12-24T13:15:21;44.75;;;12.90;;
22557;SDS011;11445;53.816;8.902;2022-12-24T13:18:10;40.90;;;13.27;;
22557;SDS011;11445;53.816;8.902;2022-12-24T13:20:51;41.28;;;14.20;;
22557;SDS011;11445;53.816;8.902;2022-12-24T13:23:19;54.63;;;13.88;;
22557;SDS011;11445;53.816;8.902;2022-12-24T13:25:49;49.35;;;13.70;;
22557;SDS011;11445;53.816;8.902;2022-12-24T13:28:31;32.10;;;12.85;;
22557;SDS011;11445;53.816;8.902;2022-12-24T13:33:54;41.47;;;12.37;;
22557;SDS011;11445;53.816;8.902;2022-12-24T13:36:23;42.22;;;11.75;;
22557;SDS011;11445;53.816;8.902;2022-12-24T13:38:51;50.80;;;12.32;;
22557;SDS011;11445;53.816;8.902;2022-12-24T13:41:44;42.78;;;11.77;;
22557;SDS011;11445;53.816;8.902;2022-12-24T13:44:23;40.35;;;10.93;;
22557;SDS011;11445;53.816;8.902;2022-12-24T13:47:18;45.58;;;10.45;;
22557;SDS011;11445;53.816;8.902;2022-12-24T13:49:50;50.55;;;11.43;;
22557;SDS011;11445;53.816;8.902;2022-12-24T13:52:26;59.85;;;10.95;;
22557;SDS011;11445;53.816;8.902;2022-12-24T13:55:03;49.33;;;9.68;;
22557;SDS011;11445;53.816;8.902;2022-12-24T13:57:37;62.63;;;9.63;;
22557;SDS011;11445;53.816;8.902;2022-12-24T14:00:21;46.53;;;9.60;;
22557;SDS011;11445;53.816;8.902;2022-12-24T14:03:00;46.55;;;9.23;;
22557;SDS011;11445;53.816;8.902;2022-12-24T14:05:31;46.47;;;8.57;;
22557;SDS011;11445;53.816;8.902;2022-12-24T14:08:02;56.38;;;9.73;;
22557;SDS011;11445;53.816;8.902;2022-12-24T14:10:34;57.20;;;9.50;;
22557;SDS011;11445;53.816;8.902;2022-12-24T14:13:05;48.08;;;9.05;;
22557;SDS011;11445;53.816;8.902;2022-12-24T14:18:29;49.58;;;8.57;;
22557;SDS011;11445;53.816;8.902;2022-12-24T14:20:59;54.63;;;8.30;;
22557;SDS011;11445;53.816;8.902;2022-12-24T14:23:32;59.20;;;10.25;;
22557;SDS011;11445;53.816;8.902;2022-12-24T14:26:11;44.45;;;8.75;;
22557;SDS011;11445;53.816;8.902;2022-12-24T14:28:42;51.22;;;9.20;;
22557;SDS011;11445;53.816;8.902;2022-12-24T14:31:13;66.63;;;10.13;;
22557;SDS011;11445;53.816;8.902;2022-12-24T14:33:43;57.97;;;9.52;;
22557;SDS011;11445;53.816;8.902;2022-12-24T14:36:12;49.20;;;9.20;;
22557;SDS011;11445;53.816;8.902;2022-12-24T14:38:40;62.40;;;11.93;;
22557;SDS011;11445;53.816;8.902;2022-12-24T14:41:14;53.72;;;8.45;;
22557;SDS011;11445;53.816;8.902;2022-12-24T14:44:01;69.43;;;9.95;;
22557;SDS011;11445;53.816;8.902;2022-12-24T14:46:37;50.58;;;8.68;;
22557;SDS011;11445;53.816;8.902;2022-12-24T14:49:12;58.90;;;9.23;;
22557;SDS011;11445;53.816;8.902;2022-12-24T14:51:50;54.38;;;9.98;;
22557;SDS011;11445;53.816;8.902;2022-12-24T14:54:29;58.70;;;10.05;;
22557;SDS011;11445;53.816;8.902;2022-12-24T14:57:11;72.95;;;10.93;;
22557;SDS011;11445;53.816;8.902;2022-12-24T14:59:51;65.20;;;9.15;;
22557;SDS011;11445;53.816;8.902;2022-12-24T15:05:12;33.65;;;9.23;;
22557;SDS011;11445;53.816;8.902;2022-12-24T15:07:42;40.75;;;10.18;;
22557;SDS011;11445;53.816;8.902;2022-12-24T15:10:26;32.42;;;7.97;;
22557;SDS011;11445;53.816;8.902;2022-12-24T15:12:55;44.53;;;7.93;;